Weather at Guarulhos - Governador André Franco Montoro International Airport

Public forecast

Using degrees Celsius for public forecast. Weather courtesy of forecast.io.

Current aviation weather report (METAR) for Guarulhos - Governador André Franco Montoro International Airport

2024/06/20 18:00 (retrieved 58 minutes ago)

SBGR 201800Z 13004KT CAVOK 27/01 Q1020

Aviation forecast (TAF) for Guarulhos - Governador André Franco Montoro International Airport

2024/06/20 18:00 (retrieved 58 minutes ago)

TAF SBGR 201630Z 2018/2124 32010KT CAVOK TN12/2109Z TX26/2117Z BECMG 2019/2022 09005KT BECMG 2106/2108 07007KT BECMG 2116/2118 04005KT BECMG 2119/2121 08005KT BECMG 2121/2123 10005KT RMK PHG